Time;durP1;ratioP1;P1;durP2;ratioP2;P2;SDS_P1;SDS_P2;PMS_P1;PMS_P2;Temp;Humidity;BMP_temperature;BMP_pressure;BME280_temperature;BME280_humidity;BME280_pressure;Samples;Min_cycle;Max_cycle;Signal;HPM_P1;HPM_P2
2023/03/25 00:00:06;;;;;;;1.1;1.1;;;;;;;9.0;100.0;99980;;;;
2023/03/25 00:01:00;;;;;;;1.3;1.3;;;;;;;8.9;100.0;99980;;;;
2023/03/25 00:02:00;;;;;;;1.3;1.3;;;;;;;8.9;100.0;99980;;;;
2023/03/25 00:03:01;;;;;;;1.3;1.3;;;;;;;8.9;100.0;99980;;;;
2023/03/25 00:04:03;;;;;;;1.3;1.3;;;;;;;8.9;100.0;99980;;;;
2023/03/25 00:05:02;;;;;;;1.3;1.3;;;;;;;8.9;100.0;99980;;;;
2023/03/25 00:06:00;;;;;;;1.3;1.3;;;;;;;8.9;100.0;99980;;;;
2023/03/25 00:07:00;;;;;;;1.3;1.3;;;;;;;8.9;100.0;99990;;;;
2023/03/25 00:08:01;;;;;;;1.3;1.3;;;;;;;8.9;100.0;99990;;;;
2023/03/25 00:09:01;;;;;;;1.3;1.3;;;;;;;9.0;100.0;99980;;;;
2023/03/25 00:10:00;;;;;;;1.3;1.3;;;;;;;9.0;100.0;99980;;;;
2023/03/25 00:11:02;;;;;;;1.3;1.3;;;;;;;9.0;100.0;99980;;;;
2023/03/25 00:12:00;;;;;;;1.3;1.3;;;;;;;9.0;100.0;99980;;;;
2023/03/25 00:13:04;;;;;;;1.3;1.3;;;;;;;9.0;100.0;99990;;;;
2023/03/25 00:14:00;;;;;;;1.3;1.3;;;;;;;9.0;100.0;99990;;;;
2023/03/25 00:15:00;;;;;;;1.3;1.3;;;;;;;8.9;100.0;99980;;;;
2023/03/25 00:16:01;;;;;;;1.3;1.3;;;;;;;8.9;100.0;99980;;;;
2023/03/25 00:17:00;;;;;;;1.3;1.3;;;;;;;8.9;100.0;99980;;;;
2023/03/25 00:18:00;;;;;;;1.3;1.3;;;;;;;8.9;100.0;99980;;;;
2023/03/25 00:19:01;;;;;;;1.3;1.3;;;;;;;8.9;100.0;99990;;;;
2023/03/25 00:20:03;;;;;;;1.3;1.3;;;;;;;8.9;100.0;99990;;;;
2023/03/25 00:21:01;;;;;;;1.1;1.1;;;;;;;9.0;100.0;99980;;;;
2023/03/25 00:22:00;;;;;;;1.1;1.1;;;;;;;9.0;100.0;99980;;;;
2023/03/25 00:23:00;;;;;;;1.1;1.1;;;;;;;9.0;100.0;99990;;;;
2023/03/25 00:24:01;;;;;;;1.1;1.1;;;;;;;9.0;100.0;99990;;;;
2023/03/25 00:25:00;;;;;;;1.1;1.1;;;;;;;9.0;100.0;99990;;;;
2023/03/25 00:26:00;;;;;;;1.1;1.1;;;;;;;9.0;100.0;99990;;;;
2023/03/25 00:27:00;;;;;;;1.1;1.1;;;;;;;8.9;100.0;99980;;;;
2023/03/25 00:28:00;;;;;;;1.1;1.1;;;;;;;8.9;100.0;99980;;;;
2023/03/25 00:29:00;;;;;;;1.1;1.1;;;;;;;8.8;100.0;99980;;;;
2023/03/25 00:30:00;;;;;;;1.1;1.1;;;;;;;8.8;100.0;99980;;;;
2023/03/25 00:31:01;;;;;;;1.1;1.1;;;;;;;8.8;100.0;99980;;;;
2023/03/25 00:32:00;;;;;;;1.1;1.1;;;;;;;8.8;100.0;99980;;;;
2023/03/25 00:33:00;;;;;;;1.1;1.1;;;;;;;8.9;100.0;99990;;;;
2023/03/25 00:34:00;;;;;;;1.1;1.1;;;;;;;8.9;100.0;99990;;;;
2023/03/25 00:35:00;;;;;;;1.1;1.1;;;;;;;8.9;100.0;99990;;;;
2023/03/25 00:36:00;;;;;;;1.1;1.1;;;;;;;8.9;100.0;99990;;;;
2023/03/25 00:37:01;;;;;;;1.1;1.1;;;;;;;8.9;100.0;99990;;;;
2023/03/25 00:38:01;;;;;;;1.1;1.1;;;;;;;8.9;100.0;99990;;;;
2023/03/25 00:39:00;;;;;;;1.1;1.1;;;;;;;9.0;100.0;99980;;;;
2023/03/25 00:40:00;;;;;;;1.1;1.1;;;;;;;9.0;100.0;99980;;;;
2023/03/25 00:41:10;;;;;;;1.4;1.4;;;;;;;9.0;100.0;99980;;;;
2023/03/25 00:42:01;;;;;;;1.4;1.4;;;;;;;9.0;100.0;99980;;;;
2023/03/25 00:43:00;;;;;;;1.4;1.4;;;;;;;9.0;100.0;99980;;;;
2023/03/25 00:44:00;;;;;;;1.4;1.4;;;;;;;9.0;100.0;99980;;;;
2023/03/25 00:45:00;;;;;;;1.4;1.4;;;;;;;9.0;100.0;99980;;;;
2023/03/25 00:46:00;;;;;;;1.4;1.4;;;;;;;9.0;100.0;99980;;;;
2023/03/25 00:47:00;;;;;;;1.4;1.4;;;;;;;9.0;100.0;99980;;;;
2023/03/25 00:48:00;;;;;;;1.4;1.4;;;;;;;9.0;100.0;99980;;;;
2023/03/25 00:49:00;;;;;;;1.4;1.4;;;;;;;9.0;100.0;99980;;;;
2023/03/25 00:50:02;;;;;;;1.4;1.4;;;;;;;9.0;100.0;99980;;;;
2023/03/25 00:51:06;;;;;;;1.4;1.4;;;;;;;9.0;100.0;99980;;;;
2023/03/25 00:52:00;;;;;;;1.4;1.4;;;;;;;9.0;100.0;99980;;;;
2023/03/25 00:53:00;;;;;;;1.4;1.4;;;;;;;9.0;100.0;99980;;;;
2023/03/25 00:54:00;;;;;;;1.4;1.4;;;;;;;9.0;100.0;99980;;;;
2023/03/25 00:55:01;;;;;;;1.4;1.4;;;;;;;9.1;100.0;99980;;;;
2023/03/25 00:56:01;;;;;;;1.4;1.4;;;;;;;9.1;100.0;99980;;;;
2023/03/25 00:57:00;;;;;;;1.4;1.4;;;;;;;9.0;100.0;99980;;;;
2023/03/25 00:58:00;;;;;;;1.4;1.4;;;;;;;9.0;100.0;99980;;;;
2023/03/25 00:59:00;;;;;;;1.4;1.4;;;;;;;9.0;100.0;99980;;;;
2023/03/25 01:00:00;;;;;;;1.4;1.4;;;;;;;9.0;100.0;99980;;;;
2023/03/25 01:01:01;;;;;;;1.1;1.1;;;;;;;9.0;100.0;99980;;;;
2023/03/25 01:02:01;;;;;;;1.1;1.1;;;;;;;9.0;100.0;99980;;;;
2023/03/25 01:03:02;;;;;;;1.1;1.1;;;;;;;8.9;100.0;99970;;;;
2023/03/25 01:04:01;;;;;;;1.1;1.1;;;;;;;8.9;100.0;99970;;;;
2023/03/25 01:05:00;;;;;;;1.1;1.1;;;;;;;8.9;100.0;99980;;;;
2023/03/25 01:06:00;;;;;;;1.1;1.1;;;;;;;8.9;100.0;99980;;;;
2023/03/25 01:07:00;;;;;;;1.1;1.1;;;;;;;8.9;100.0;99990;;;;
2023/03/25 01:08:01;;;;;;;1.1;1.1;;;;;;;8.9;100.0;99990;;;;
2023/03/25 01:09:02;;;;;;;1.1;1.1;;;;;;;8.9;100.0;99980;;;;
2023/03/25 01:10:00;;;;;;;1.1;1.1;;;;;;;8.9;100.0;99980;;;;
2023/03/25 01:11:00;;;;;;;1.1;1.1;;;;;;;8.9;100.0;99980;;;;
2023/03/25 01:12:00;;;;;;;1.1;1.1;;;;;;;8.9;100.0;99980;;;;
2023/03/25 01:13:00;;;;;;;1.1;1.1;;;;;;;8.9;100.0;99980;;;;
2023/03/25 01:14:00;;;;;;;1.1;1.1;;;;;;;8.9;100.0;99980;;;;
2023/03/25 01:15:00;;;;;;;1.1;1.1;;;;;;;8.9;100.0;99970;;;;
2023/03/25 01:16:00;;;;;;;1.1;1.1;;;;;;;8.9;100.0;99970;;;;
2023/03/25 01:17:00;;;;;;;1.1;1.1;;;;;;;8.9;100.0;99970;;;;
2023/03/25 01:18:00;;;;;;;1.1;1.1;;;;;;;8.9;100.0;99970;;;;
2023/03/25 01:19:00;;;;;;;1.1;1.1;;;;;;;8.9;100.0;99970;;;;
2023/03/25 01:20:00;;;;;;;1.1;1.1;;;;;;;8.9;100.0;99970;;;;
2023/03/25 01:21:00;;;;;;;1.0;1.0;;;;;;;8.9;100.0;99980;;;;
2023/03/25 01:22:00;;;;;;;1.0;1.0;;;;;;;8.9;100.0;99980;;;;
2023/03/25 01:23:00;;;;;;;1.0;1.0;;;;;;;8.9;100.0;99970;;;;
2023/03/25 01:24:00;;;;;;;1.0;1.0;;;;;;;8.9;100.0;99970;;;;
2023/03/25 01:25:00;;;;;;;1.0;1.0;;;;;;;8.9;100.0;99980;;;;
2023/03/25 01:26:00;;;;;;;1.0;1.0;;;;;;;8.9;100.0;99980;;;;
2023/03/25 01:27:00;;;;;;;1.0;1.0;;;;;;;8.9;100.0;99970;;;;
2023/03/25 01:28:00;;;;;;;1.0;1.0;;;;;;;8.9;100.0;99970;;;;
2023/03/25 01:29:00;;;;;;;1.0;1.0;;;;;;;8.9;100.0;99970;;;;
2023/03/25 01:30:00;;;;;;;1.0;1.0;;;;;;;8.9;100.0;99970;;;;
2023/03/25 01:31:01;;;;;;;1.0;1.0;;;;;;;8.9;100.0;99970;;;;
2023/03/25 01:32:00;;;;;;;1.0;1.0;;;;;;;8.9;100.0;99970;;;;
2023/03/25 01:33:00;;;;;;;1.0;1.0;;;;;;;8.9;100.0;99980;;;;
2023/03/25 01:34:00;;;;;;;1.0;1.0;;;;;;;8.9;100.0;99980;;;;
2023/03/25 01:35:00;;;;;;;1.0;1.0;;;;;;;9.0;100.0;99980;;;;
2023/03/25 01:36:01;;;;;;;1.0;1.0;;;;;;;9.0;100.0;99980;;;;
2023/03/25 01:37:00;;;;;;;1.0;1.0;;;;;;;8.9;100.0;99970;;;;
2023/03/25 01:38:00;;;;;;;1.0;1.0;;;;;;;8.9;100.0;99970;;;;
2023/03/25 01:39:01;;;;;;;1.0;1.0;;;;;;;8.9;100.0;99970;;;;
2023/03/25 01:40:00;;;;;;;1.0;1.0;;;;;;;8.9;100.0;99970;;;;
2023/03/25 01:41:00;;;;;;;1.1;1.1;;;;;;;8.8;100.0;99970;;;;
2023/03/25 01:42:00;;;;;;;1.1;1.1;;;;;;;8.8;100.0;99970;;;;
2023/03/25 01:43:00;;;;;;;1.1;1.1;;;;;;;8.8;100.0;99970;;;;
2023/03/25 01:44:07;;;;;;;1.1;1.1;;;;;;;8.8;100.0;99970;;;;
2023/03/25 01:45:10;;;;;;;1.1;1.1;;;;;;;8.8;100.0;99970;;;;
2023/03/25 01:46:00;;;;;;;1.1;1.1;;;;;;;8.8;100.0;99970;;;;
2023/03/25 01:47:02;;;;;;;1.1;1.1;;;;;;;8.6;100.0;99980;;;;
2023/03/25 01:48:06;;;;;;;1.1;1.1;;;;;;;8.6;100.0;99980;;;;
2023/03/25 01:49:02;;;;;;;1.1;1.1;;;;;;;8.6;100.0;99980;;;;
2023/03/25 01:50:00;;;;;;;1.1;1.1;;;;;;;8.6;100.0;99980;;;;
2023/03/25 01:51:04;;;;;;;1.1;1.1;;;;;;;8.6;100.0;99980;;;;
2023/03/25 01:52:03;;;;;;;1.1;1.1;;;;;;;8.6;100.0;99980;;;;
2023/03/25 01:53:02;;;;;;;1.1;1.1;;;;;;;8.7;100.0;99980;;;;
2023/03/25 01:54:00;;;;;;;1.1;1.1;;;;;;;8.7;100.0;99980;;;;
2023/03/25 01:55:00;;;;;;;1.1;1.1;;;;;;;8.6;100.0;99980;;;;
2023/03/25 01:56:01;;;;;;;1.1;1.1;;;;;;;8.6;100.0;99980;;;;
2023/03/25 01:57:00;;;;;;;1.1;1.1;;;;;;;8.7;100.0;99970;;;;
2023/03/25 01:58:03;;;;;;;1.1;1.1;;;;;;;8.7;100.0;99970;;;;
2023/03/25 01:59:02;;;;;;;1.1;1.1;;;;;;;8.7;100.0;99970;;;;
2023/03/25 02:00:00;;;;;;;1.1;1.1;;;;;;;8.7;100.0;99970;;;;
2023/03/25 02:01:02;;;;;;;1.0;1.0;;;;;;;8.7;100.0;99970;;;;
2023/03/25 02:02:02;;;;;;;1.0;1.0;;;;;;;8.7;100.0;99970;;;;
2023/03/25 02:03:01;;;;;;;1.0;1.0;;;;;;;8.7;100.0;99970;;;;
2023/03/25 02:04:08;;;;;;;1.0;1.0;;;;;;;8.7;100.0;99970;;;;
2023/03/25 02:05:02;;;;;;;1.0;1.0;;;;;;;8.7;100.0;99980;;;;
2023/03/25 02:06:02;;;;;;;1.0;1.0;;;;;;;8.7;100.0;99980;;;;
2023/03/25 02:07:00;;;;;;;1.0;1.0;;;;;;;8.8;100.0;99970;;;;
2023/03/25 02:08:02;;;;;;;1.0;1.0;;;;;;;8.8;100.0;99970;;;;
2023/03/25 02:09:03;;;;;;;1.0;1.0;;;;;;;8.7;100.0;99970;;;;
2023/03/25 02:10:03;;;;;;;1.0;1.0;;;;;;;8.7;100.0;99970;;;;
2023/03/25 02:11:00;;;;;;;1.0;1.0;;;;;;;8.6;100.0;99960;;;;
2023/03/25 02:12:00;;;;;;;1.0;1.0;;;;;;;8.6;100.0;99960;;;;
2023/03/25 02:13:01;;;;;;;1.0;1.0;;;;;;;8.5;100.0;99960;;;;
2023/03/25 02:14:03;;;;;;;1.0;1.0;;;;;;;8.5;100.0;99960;;;;
2023/03/25 02:15:01;;;;;;;1.0;1.0;;;;;;;8.5;100.0;99970;;;;
2023/03/25 02:16:10;;;;;;;1.0;1.0;;;;;;;8.5;100.0;99970;;;;
2023/03/25 02:17:01;;;;;;;1.0;1.0;;;;;;;8.6;100.0;99970;;;;
2023/03/25 02:18:10;;;;;;;1.0;1.0;;;;;;;8.6;100.0;99970;;;;
2023/03/25 02:19:10;;;;;;;1.0;1.0;;;;;;;8.6;100.0;99970;;;;
2023/03/25 02:20:12;;;;;;;0.9;0.9;;;;;;;8.6;100.0;99970;;;;
2023/03/25 02:21:10;;;;;;;0.9;0.9;;;;;;;8.7;100.0;99960;;;;
2023/03/25 02:22:10;;;;;;;0.9;0.9;;;;;;;8.7;100.0;99960;;;;
2023/03/25 02:23:10;;;;;;;0.9;0.9;;;;;;;8.6;100.0;99960;;;;
2023/03/25 02:24:12;;;;;;;0.9;0.9;;;;;;;8.6;100.0;99960;;;;
2023/03/25 02:25:10;;;;;;;0.9;0.9;;;;;;;8.6;100.0;99960;;;;
2023/03/25 02:26:00;;;;;;;0.9;0.9;;;;;;;8.6;100.0;99960;;;;
2023/03/25 02:27:13;;;;;;;0.9;0.9;;;;;;;8.6;100.0;99960;;;;
2023/03/25 02:28:10;;;;;;;0.9;0.9;;;;;;;8.6;100.0;99960;;;;
2023/03/25 02:29:00;;;;;;;0.9;0.9;;;;;;;8.6;100.0;99960;;;;
2023/03/25 02:30:05;;;;;;;0.9;0.9;;;;;;;8.6;100.0;99960;;;;
2023/03/25 02:31:10;;;;;;;0.9;0.9;;;;;;;8.5;100.0;99960;;;;
2023/03/25 02:32:10;;;;;;;0.9;0.9;;;;;;;8.5;100.0;99960;;;;
2023/03/25 02:33:01;;;;;;;0.9;0.9;;;;;;;8.5;100.0;99960;;;;
2023/03/25 02:34:11;;;;;;;0.9;0.9;;;;;;;8.5;100.0;99960;;;;
2023/03/25 02:35:10;;;;;;;0.9;0.9;;;;;;;8.6;100.0;99960;;;;
2023/03/25 02:36:10;;;;;;;0.9;0.9;;;;;;;8.6;100.0;99960;;;;
2023/03/25 02:37:00;;;;;;;0.9;0.9;;;;;;;8.6;100.0;99960;;;;
2023/03/25 02:38:06;;;;;;;0.9;0.9;;;;;;;8.6;100.0;99960;;;;
2023/03/25 02:39:10;;;;;;;0.9;0.9;;;;;;;8.6;100.0;99960;;;;
2023/03/25 02:40:06;;;;;;;1.4;1.4;;;;;;;8.6;100.0;99960;;;;
2023/03/25 02:41:03;;;;;;;1.4;1.4;;;;;;;8.4;100.0;99960;;;;
2023/03/25 02:42:10;;;;;;;1.4;1.4;;;;;;;8.4;100.0;99960;;;;
2023/03/25 02:43:10;;;;;;;1.4;1.4;;;;;;;8.4;100.0;99960;;;;
2023/03/25 02:44:06;;;;;;;1.4;1.4;;;;;;;8.4;100.0;99960;;;;
2023/03/25 02:45:04;;;;;;;1.4;1.4;;;;;;;8.5;100.0;99960;;;;
2023/03/25 02:46:03;;;;;;;1.4;1.4;;;;;;;8.5;100.0;99960;;;;
2023/03/25 02:47:03;;;;;;;1.4;1.4;;;;;;;8.4;100.0;99960;;;;
2023/03/25 02:48:02;;;;;;;1.4;1.4;;;;;;;8.4;100.0;99960;;;;
2023/03/25 02:49:09;;;;;;;1.4;1.4;;;;;;;8.4;100.0;99960;;;;
2023/03/25 02:50:04;;;;;;;1.4;1.4;;;;;;;8.4;100.0;99960;;;;
2023/03/25 02:51:03;;;;;;;1.4;1.4;;;;;;;8.4;100.0;99960;;;;
2023/03/25 02:52:01;;;;;;;1.4;1.4;;;;;;;8.4;100.0;99960;;;;
2023/03/25 02:53:04;;;;;;;1.4;1.4;;;;;;;8.5;100.0;99960;;;;
2023/03/25 02:54:03;;;;;;;1.4;1.4;;;;;;;8.5;100.0;99960;;;;
2023/03/25 02:55:03;;;;;;;1.4;1.4;;;;;;;8.5;100.0;99950;;;;
2023/03/25 02:56:03;;;;;;;1.4;1.4;;;;;;;8.5;100.0;99950;;;;
2023/03/25 02:57:00;;;;;;;1.4;1.4;;;;;;;8.5;100.0;99950;;;;
2023/03/25 02:58:03;;;;;;;1.4;1.4;;;;;;;8.5;100.0;99950;;;;
2023/03/25 02:59:02;;;;;;;1.4;1.4;;;;;;;8.6;100.0;99940;;;;
2023/03/25 03:00:05;;;;;;;1.2;1.2;;;;;;;8.6;100.0;99940;;;;
2023/03/25 03:01:00;;;;;;;1.2;1.2;;;;;;;8.5;100.0;99940;;;;
2023/03/25 03:02:02;;;;;;;1.2;1.2;;;;;;;8.5;100.0;99940;;;;
2023/03/25 03:03:02;;;;;;;1.2;1.2;;;;;;;8.5;100.0;99940;;;;
2023/03/25 03:04:00;;;;;;;1.2;1.2;;;;;;;8.5;100.0;99940;;;;
2023/03/25 03:05:00;;;;;;;1.2;1.2;;;;;;;8.5;100.0;99930;;;;
2023/03/25 03:06:02;;;;;;;1.2;1.2;;;;;;;8.5;100.0;99930;;;;
2023/03/25 03:07:00;;;;;;;1.2;1.2;;;;;;;8.5;100.0;99930;;;;
2023/03/25 03:08:00;;;;;;;1.2;1.2;;;;;;;8.5;100.0;99930;;;;
2023/03/25 03:09:10;;;;;;;1.2;1.2;;;;;;;8.5;100.0;99930;;;;
2023/03/25 03:10:12;;;;;;;1.2;1.2;;;;;;;8.5;100.0;99930;;;;
2023/03/25 03:11:10;;;;;;;1.2;1.2;;;;;;;8.4;100.0;99930;;;;
2023/03/25 03:12:09;;;;;;;1.2;1.2;;;;;;;8.4;100.0;99930;;;;
2023/03/25 03:13:10;;;;;;;1.2;1.2;;;;;;;8.4;100.0;99940;;;;
2023/03/25 03:14:03;;;;;;;1.2;1.2;;;;;;;8.4;100.0;99940;;;;
2023/03/25 03:15:10;;;;;;;1.2;1.2;;;;;;;8.4;100.0;99940;;;;
2023/03/25 03:16:00;;;;;;;1.2;1.2;;;;;;;8.4;100.0;99940;;;;
2023/03/25 03:17:08;;;;;;;1.2;1.2;;;;;;;8.3;100.0;99940;;;;
2023/03/25 03:18:00;;;;;;;1.2;1.2;;;;;;;8.3;100.0;99940;;;;
2023/03/25 03:19:10;;;;;;;1.2;1.2;;;;;;;8.3;100.0;99940;;;;
2023/03/25 03:20:10;;;;;;;1.0;1.0;;;;;;;8.3;100.0;99940;;;;
2023/03/25 03:21:10;;;;;;;1.0;1.0;;;;;;;8.3;100.0;99950;;;;
2023/03/25 03:22:00;;;;;;;1.0;1.0;;;;;;;8.3;100.0;99950;;;;
2023/03/25 03:23:10;;;;;;;1.0;1.0;;;;;;;8.3;100.0;99950;;;;
2023/03/25 03:24:03;;;;;;;1.0;1.0;;;;;;;8.3;100.0;99950;;;;
2023/03/25 03:25:03;;;;;;;1.0;1.0;;;;;;;8.4;100.0;99950;;;;
2023/03/25 03:26:07;;;;;;;1.0;1.0;;;;;;;8.4;100.0;99950;;;;
2023/03/25 03:27:08;;;;;;;1.0;1.0;;;;;;;8.4;100.0;99950;;;;
2023/03/25 03:28:00;;;;;;;1.0;1.0;;;;;;;8.4;100.0;99950;;;;
2023/03/25 03:29:06;;;;;;;1.0;1.0;;;;;;;8.4;100.0;99940;;;;
2023/03/25 03:30:06;;;;;;;1.0;1.0;;;;;;;8.4;100.0;99940;;;;
2023/03/25 03:31:05;;;;;;;1.0;1.0;;;;;;;8.4;100.0;99950;;;;
2023/03/25 03:32:08;;;;;;;1.0;1.0;;;;;;;8.4;100.0;99950;;;;
2023/03/25 03:33:00;;;;;;;1.0;1.0;;;;;;;8.4;100.0;99950;;;;
2023/03/25 03:34:04;;;;;;;1.0;1.0;;;;;;;8.4;100.0;99950;;;;
2023/03/25 03:35:03;;;;;;;1.0;1.0;;;;;;;8.4;100.0;99950;;;;
2023/03/25 03:36:03;;;;;;;1.0;1.0;;;;;;;8.4;100.0;99950;;;;
2023/03/25 03:37:01;;;;;;;1.0;1.0;;;;;;;8.3;100.0;99940;;;;
2023/03/25 03:38:02;;;;;;;1.0;1.0;;;;;;;8.3;100.0;99940;;;;
2023/03/25 03:39:06;;;;;;;1.0;1.0;;;;;;;8.3;100.0;99950;;;;
2023/03/25 03:40:01;;;;;;;1.0;1.0;;;;;;;8.3;100.0;99950;;;;
2023/03/25 03:41:03;;;;;;;1.0;1.0;;;;;;;8.4;100.0;99950;;;;
2023/03/25 03:42:02;;;;;;;1.0;1.0;;;;;;;8.4;100.0;99950;;;;
2023/03/25 03:43:02;;;;;;;1.0;1.0;;;;;;;8.4;100.0;99960;;;;
2023/03/25 03:44:04;;;;;;;1.0;1.0;;;;;;;8.4;100.0;99960;;;;
2023/03/25 03:45:03;;;;;;;1.0;1.0;;;;;;;8.4;100.0;99960;;;;
2023/03/25 03:46:05;;;;;;;1.0;1.0;;;;;;;8.4;100.0;99960;;;;
2023/03/25 03:47:10;;;;;;;1.0;1.0;;;;;;;8.4;100.0;99960;;;;
2023/03/25 03:48:03;;;;;;;1.0;1.0;;;;;;;8.4;100.0;99960;;;;
2023/03/25 03:49:03;;;;;;;1.0;1.0;;;;;;;8.5;100.0;99950;;;;
2023/03/25 03:50:05;;;;;;;1.0;1.0;;;;;;;8.5;100.0;99950;;;;
2023/03/25 03:51:06;;;;;;;1.0;1.0;;;;;;;8.4;100.0;99960;;;;
2023/03/25 03:52:08;;;;;;;1.0;1.0;;;;;;;8.4;100.0;99960;;;;
2023/03/25 03:53:03;;;;;;;1.0;1.0;;;;;;;8.3;100.0;99950;;;;
2023/03/25 03:54:04;;;;;;;1.0;1.0;;;;;;;8.3;100.0;99950;;;;
2023/03/25 03:55:03;;;;;;;1.0;1.0;;;;;;;8.3;100.0;99950;;;;
2023/03/25 03:56:05;;;;;;;1.0;1.0;;;;;;;8.3;100.0;99950;;;;
2023/03/25 03:57:02;;;;;;;1.0;1.0;;;;;;;8.3;100.0;99950;;;;
2023/03/25 03:58:02;;;;;;;1.0;1.0;;;;;;;8.3;100.0;99950;;;;
2023/03/25 03:59:01;;;;;;;1.0;1.0;;;;;;;8.4;100.0;99940;;;;
2023/03/25 04:00:05;;;;;;;1.7;1.6;;;;;;;8.4;100.0;99940;;;;
2023/03/25 04:01:03;;;;;;;1.7;1.6;;;;;;;8.4;100.0;99950;;;;
2023/03/25 04:02:02;;;;;;;1.7;1.6;;;;;;;8.4;100.0;99950;;;;
2023/03/25 04:03:05;;;;;;;1.7;1.6;;;;;;;8.4;100.0;99950;;;;
2023/03/25 04:04:02;;;;;;;1.7;1.6;;;;;;;8.4;100.0;99950;;;;
2023/03/25 04:05:00;;;;;;;1.7;1.6;;;;;;;8.4;100.0;99940;;;;
2023/03/25 04:06:06;;;;;;;1.7;1.6;;;;;;;8.4;100.0;99940;;;;
2023/03/25 04:07:03;;;;;;;1.7;1.6;;;;;;;8.4;100.0;99950;;;;
2023/03/25 04:08:03;;;;;;;1.7;1.6;;;;;;;8.4;100.0;99950;;;;
2023/03/25 04:09:04;;;;;;;1.7;1.6;;;;;;;8.3;100.0;99940;;;;
2023/03/25 04:10:05;;;;;;;1.7;1.6;;;;;;;8.3;100.0;99940;;;;
2023/03/25 04:11:04;;;;;;;1.7;1.6;;;;;;;8.2;100.0;99940;;;;
2023/03/25 04:12:04;;;;;;;1.7;1.6;;;;;;;8.2;100.0;99940;;;;
2023/03/25 04:13:03;;;;;;;1.7;1.6;;;;;;;8.2;100.0;99940;;;;
2023/03/25 04:14:01;;;;;;;1.7;1.6;;;;;;;8.2;100.0;99940;;;;
2023/03/25 04:15:01;;;;;;;1.7;1.6;;;;;;;8.2;100.0;99940;;;;
2023/03/25 04:16:00;;;;;;;1.7;1.6;;;;;;;8.2;100.0;99940;;;;
2023/03/25 04:17:00;;;;;;;1.7;1.6;;;;;;;8.2;100.0;99940;;;;
2023/03/25 04:18:02;;;;;;;1.7;1.6;;;;;;;8.2;100.0;99940;;;;
2023/03/25 04:19:00;;;;;;;1.7;1.6;;;;;;;8.2;100.0;99950;;;;
2023/03/25 04:20:05;;;;;;;1.3;1.3;;;;;;;8.2;100.0;99950;;;;
2023/03/25 04:21:00;;;;;;;1.3;1.3;;;;;;;8.2;100.0;99950;;;;
2023/03/25 04:22:01;;;;;;;1.3;1.3;;;;;;;8.2;100.0;99950;;;;
2023/03/25 04:23:00;;;;;;;1.3;1.3;;;;;;;8.2;100.0;99940;;;;
2023/03/25 04:24:00;;;;;;;1.3;1.3;;;;;;;8.2;100.0;99940;;;;
2023/03/25 04:25:00;;;;;;;1.3;1.3;;;;;;;8.3;100.0;99950;;;;
2023/03/25 04:26:01;;;;;;;1.3;1.3;;;;;;;8.3;100.0;99950;;;;
2023/03/25 04:27:03;;;;;;;1.3;1.3;;;;;;;8.2;100.0;99950;;;;
2023/03/25 04:28:00;;;;;;;1.3;1.3;;;;;;;8.2;100.0;99950;;;;
2023/03/25 04:29:00;;;;;;;1.3;1.3;;;;;;;8.3;100.0;99940;;;;
2023/03/25 04:30:00;;;;;;;1.3;1.3;;;;;;;8.3;100.0;99940;;;;
2023/03/25 04:31:04;;;;;;;1.3;1.3;;;;;;;8.2;100.0;99950;;;;
2023/03/25 04:32:00;;;;;;;1.3;1.3;;;;;;;8.2;100.0;99950;;;;
2023/03/25 04:33:00;;;;;;;1.3;1.3;;;;;;;8.2;100.0;99950;;;;
2023/03/25 04:34:01;;;;;;;1.3;1.3;;;;;;;8.2;100.0;99950;;;;
2023/03/25 04:35:00;;;;;;;1.3;1.3;;;;;;;8.2;100.0;99950;;;;
2023/03/25 04:36:00;;;;;;;1.3;1.3;;;;;;;8.2;100.0;99950;;;;
2023/03/25 04:37:00;;;;;;;1.3;1.3;;;;;;;8.2;100.0;99950;;;;
2023/03/25 04:38:00;;;;;;;1.3;1.3;;;;;;;8.2;100.0;99950;;;;
2023/03/25 04:39:00;;;;;;;1.3;1.3;;;;;;;8.2;100.0;99940;;;;
2023/03/25 04:40:00;;;;;;;1.3;1.3;;;;;;;8.2;100.0;99940;;;;
2023/03/25 04:41:00;;;;;;;1.3;1.3;;;;;;;8.3;100.0;99950;;;;
2023/03/25 04:42:00;;;;;;;1.3;1.3;;;;;;;8.3;100.0;99950;;;;
2023/03/25 04:43:00;;;;;;;1.3;1.3;;;;;;;8.3;100.0;99940;;;;
2023/03/25 04:44:00;;;;;;;1.3;1.3;;;;;;;8.3;100.0;99940;;;;
2023/03/25 04:45:00;;;;;;;1.3;1.3;;;;;;;8.3;100.0;99950;;;;
2023/03/25 04:46:01;;;;;;;1.3;1.3;;;;;;;8.3;100.0;99950;;;;
2023/03/25 04:47:01;;;;;;;1.3;1.3;;;;;;;8.2;100.0;99950;;;;
2023/03/25 04:48:00;;;;;;;1.3;1.3;;;;;;;8.2;100.0;99950;;;;
2023/03/25 04:49:02;;;;;;;1.3;1.3;;;;;;;8.2;100.0;99950;;;;
2023/03/25 04:50:00;;;;;;;1.3;1.3;;;;;;;8.2;100.0;99950;;;;
2023/03/25 04:51:02;;;;;;;1.3;1.3;;;;;;;8.2;100.0;99950;;;;
2023/03/25 04:52:03;;;;;;;1.3;1.3;;;;;;;8.2;100.0;99950;;;;
2023/03/25 04:53:00;;;;;;;1.3;1.3;;;;;;;8.1;100.0;99950;;;;
2023/03/25 04:54:00;;;;;;;1.3;1.3;;;;;;;8.1;100.0;99950;;;;
2023/03/25 04:55:00;;;;;;;1.3;1.3;;;;;;;8.1;100.0;99930;;;;
2023/03/25 04:56:00;;;;;;;1.3;1.3;;;;;;;8.1;100.0;99930;;;;
2023/03/25 04:57:00;;;;;;;1.3;1.3;;;;;;;8.2;100.0;99930;;;;
2023/03/25 04:58:00;;;;;;;1.3;1.3;;;;;;;8.2;100.0;99930;;;;
2023/03/25 04:59:00;;;;;;;1.3;1.3;;;;;;;8.2;100.0;99940;;;;
2023/03/25 05:00:00;;;;;;;1.1;1.1;;;;;;;8.2;100.0;99940;;;;
2023/03/25 05:01:04;;;;;;;1.1;1.1;;;;;;;8.3;100.0;99940;;;;
2023/03/25 05:02:02;;;;;;;1.1;1.1;;;;;;;8.3;100.0;99940;;;;
2023/03/25 05:03:00;;;;;;;1.1;1.1;;;;;;;8.2;100.0;99940;;;;
2023/03/25 05:04:03;;;;;;;1.1;1.1;;;;;;;8.2;100.0;99940;;;;
2023/03/25 05:05:01;;;;;;;1.1;1.1;;;;;;;8.2;100.0;99940;;;;
2023/03/25 05:06:00;;;;;;;1.1;1.1;;;;;;;8.2;100.0;99940;;;;
2023/03/25 05:07:01;;;;;;;1.1;1.1;;;;;;;8.2;100.0;99930;;;;
2023/03/25 05:08:00;;;;;;;1.1;1.1;;;;;;;8.2;100.0;99930;;;;
2023/03/25 05:09:03;;;;;;;1.1;1.1;;;;;;;8.2;100.0;99940;;;;
2023/03/25 05:10:00;;;;;;;1.1;1.1;;;;;;;8.2;100.0;99940;;;;
2023/03/25 05:11:00;;;;;;;1.1;1.1;;;;;;;8.3;100.0;99940;;;;
2023/03/25 05:12:00;;;;;;;1.1;1.1;;;;;;;8.3;100.0;99940;;;;
2023/03/25 05:13:01;;;;;;;1.1;1.1;;;;;;;8.2;100.0;99940;;;;
2023/03/25 05:14:00;;;;;;;1.1;1.1;;;;;;;8.2;100.0;99940;;;;
2023/03/25 05:15:00;;;;;;;1.1;1.1;;;;;;;8.1;100.0;99940;;;;
2023/03/25 05:16:00;;;;;;;1.1;1.1;;;;;;;8.1;100.0;99940;;;;
2023/03/25 05:17:00;;;;;;;1.1;1.1;;;;;;;8.2;100.0;99950;;;;
2023/03/25 05:18:01;;;;;;;1.1;1.1;;;;;;;8.2;100.0;99950;;;;
2023/03/25 05:19:02;;;;;;;1.1;1.1;;;;;;;8.1;100.0;99940;;;;
2023/03/25 05:20:00;;;;;;;1.1;1.1;;;;;;;8.1;100.0;99940;;;;
2023/03/25 05:21:01;;;;;;;1.1;1.1;;;;;;;8.1;100.0;99940;;;;
2023/03/25 05:22:01;;;;;;;1.1;1.1;;;;;;;8.1;100.0;99940;;;;
2023/03/25 05:23:00;;;;;;;1.1;1.1;;;;;;;8.0;100.0;99940;;;;
2023/03/25 05:24:01;;;;;;;1.1;1.1;;;;;;;8.0;100.0;99940;;;;
2023/03/25 05:25:01;;;;;;;1.1;1.1;;;;;;;8.1;100.0;99950;;;;
2023/03/25 05:26:00;;;;;;;1.1;1.1;;;;;;;8.1;100.0;99950;;;;
2023/03/25 05:27:01;;;;;;;1.1;1.1;;;;;;;8.0;100.0;99950;;;;
2023/03/25 05:28:04;;;;;;;1.1;1.1;;;;;;;8.0;100.0;99950;;;;
2023/03/25 05:29:01;;;;;;;1.1;1.1;;;;;;;8.0;100.0;99950;;;;
2023/03/25 05:30:00;;;;;;;1.1;1.1;;;;;;;8.0;100.0;99950;;;;
2023/03/25 05:31:00;;;;;;;1.1;1.1;;;;;;;8.0;100.0;99950;;;;
2023/03/25 05:32:00;;;;;;;1.1;1.1;;;;;;;8.0;100.0;99950;;;;
2023/03/25 05:33:00;;;;;;;1.1;1.1;;;;;;;8.0;100.0;99960;;;;
2023/03/25 05:34:00;;;;;;;1.1;1.1;;;;;;;8.0;100.0;99960;;;;
2023/03/25 05:35:00;;;;;;;1.1;1.1;;;;;;;8.1;100.0;99950;;;;
2023/03/25 05:36:00;;;;;;;1.1;1.1;;;;;;;8.1;100.0;99950;;;;
2023/03/25 05:37:00;;;;;;;1.1;1.1;;;;;;;8.1;100.0;99950;;;;
2023/03/25 05:38:00;;;;;;;1.1;1.1;;;;;;;8.1;100.0;99950;;;;
2023/03/25 05:39:00;;;;;;;1.1;1.1;;;;;;;8.0;100.0;99950;;;;
2023/03/25 05:40:01;;;;;;;1.2;1.2;;;;;;;8.0;100.0;99950;;;;
2023/03/25 05:41:00;;;;;;;1.2;1.2;;;;;;;8.0;100.0;99960;;;;
2023/03/25 05:42:02;;;;;;;1.2;1.2;;;;;;;8.0;100.0;99960;;;;
2023/03/25 05:43:02;;;;;;;1.2;1.2;;;;;;;8.0;100.0;99970;;;;
2023/03/25 05:44:00;;;;;;;1.2;1.2;;;;;;;8.0;100.0;99970;;;;
2023/03/25 05:45:00;;;;;;;1.2;1.2;;;;;;;8.1;100.0;99960;;;;
2023/03/25 05:46:00;;;;;;;1.2;1.2;;;;;;;8.1;100.0;99960;;;;
2023/03/25 05:47:00;;;;;;;1.2;1.2;;;;;;;8.1;100.0;99970;;;;
2023/03/25 05:48:00;;;;;;;1.2;1.2;;;;;;;8.1;100.0;99970;;;;
2023/03/25 05:49:00;;;;;;;1.2;1.2;;;;;;;8.1;100.0;99970;;;;
2023/03/25 05:50:00;;;;;;;1.2;1.2;;;;;;;8.1;100.0;99970;;;;
2023/03/25 05:51:02;;;;;;;1.2;1.2;;;;;;;8.1;100.0;99970;;;;
2023/03/25 05:52:01;;;;;;;1.2;1.2;;;;;;;8.1;100.0;99970;;;;
2023/03/25 05:53:00;;;;;;;1.2;1.2;;;;;;;8.0;100.0;99970;;;;
2023/03/25 05:54:00;;;;;;;1.2;1.2;;;;;;;8.0;100.0;99970;;;;
2023/03/25 05:55:01;;;;;;;1.2;1.2;;;;;;;8.1;100.0;99970;;;;
2023/03/25 05:56:00;;;;;;;1.2;1.2;;;;;;;8.1;100.0;99970;;;;
2023/03/25 05:57:00;;;;;;;1.2;1.2;;;;;;;8.1;100.0;99980;;;;
2023/03/25 05:58:00;;;;;;;1.2;1.2;;;;;;;8.1;100.0;99980;;;;
2023/03/25 05:59:00;;;;;;;1.2;1.2;;;;;;;8.0;100.0;99980;;;;
2023/03/25 06:00:00;;;;;;;1.2;1.2;;;;;;;8.0;100.0;99980;;;;
2023/03/25 06:01:01;;;;;;;1.2;1.2;;;;;;;7.9;100.0;99980;;;;
2023/03/25 06:02:00;;;;;;;1.2;1.2;;;;;;;7.9;100.0;99980;;;;
2023/03/25 06:03:00;;;;;;;1.2;1.2;;;;;;;8.1;100.0;99980;;;;
2023/03/25 06:04:00;;;;;;;1.2;1.2;;;;;;;8.1;100.0;99980;;;;
2023/03/25 06:05:00;;;;;;;1.2;1.2;;;;;;;8.1;100.0;99970;;;;
2023/03/25 06:06:00;;;;;;;1.2;1.2;;;;;;;8.1;100.0;99970;;;;
2023/03/25 06:07:00;;;;;;;1.2;1.2;;;;;;;7.9;100.0;99970;;;;
2023/03/25 06:08:00;;;;;;;1.2;1.2;;;;;;;7.9;100.0;99970;;;;
2023/03/25 06:09:01;;;;;;;1.2;1.2;;;;;;;8.0;100.0;99970;;;;
2023/03/25 06:10:00;;;;;;;1.2;1.2;;;;;;;8.0;100.0;99970;;;;
2023/03/25 06:11:00;;;;;;;1.2;1.2;;;;;;;8.0;100.0;99970;;;;
2023/03/25 06:12:01;;;;;;;1.2;1.2;;;;;;;8.0;100.0;99970;;;;
2023/03/25 06:13:00;;;;;;;1.2;1.2;;;;;;;8.0;100.0;99980;;;;
2023/03/25 06:14:02;;;;;;;1.2;1.2;;;;;;;8.0;100.0;99980;;;;
2023/03/25 06:15:00;;;;;;;1.2;1.2;;;;;;;8.0;100.0;99970;;;;
2023/03/25 06:16:02;;;;;;;1.2;1.2;;;;;;;8.0;100.0;99970;;;;
2023/03/25 06:17:01;;;;;;;1.2;1.2;;;;;;;8.1;100.0;99980;;;;
2023/03/25 06:18:00;;;;;;;1.2;1.2;;;;;;;8.1;100.0;99980;;;;
2023/03/25 06:19:01;;;;;;;1.2;1.2;;;;;;;8.1;100.0;99980;;;;
2023/03/25 06:20:04;;;;;;;1.1;1.1;;;;;;;8.1;100.0;99980;;;;
2023/03/25 06:21:00;;;;;;;1.1;1.1;;;;;;;8.0;100.0;99970;;;;
2023/03/25 06:22:00;;;;;;;1.1;1.1;;;;;;;8.0;100.0;99970;;;;
2023/03/25 06:23:00;;;;;;;1.1;1.1;;;;;;;8.0;100.0;99980;;;;
2023/03/25 06:24:00;;;;;;;1.1;1.1;;;;;;;8.0;100.0;99980;;;;
2023/03/25 06:25:03;;;;;;;1.1;1.1;;;;;;;8.1;100.0;99980;;;;
2023/03/25 06:26:00;;;;;;;1.1;1.1;;;;;;;8.1;100.0;99980;;;;
2023/03/25 06:27:00;;;;;;;1.1;1.1;;;;;;;8.0;100.0;99980;;;;
2023/03/25 06:28:02;;;;;;;1.1;1.1;;;;;;;8.0;100.0;99980;;;;
2023/03/25 06:29:01;;;;;;;1.1;1.1;;;;;;;8.1;100.0;99980;;;;
2023/03/25 06:30:01;;;;;;;1.1;1.1;;;;;;;8.1;100.0;99980;;;;
2023/03/25 06:31:02;;;;;;;1.1;1.1;;;;;;;8.1;100.0;99980;;;;
2023/03/25 06:32:00;;;;;;;1.1;1.1;;;;;;;8.1;100.0;99980;;;;
2023/03/25 06:33:04;;;;;;;1.1;1.1;;;;;;;7.9;100.0;99980;;;;
2023/03/25 06:34:00;;;;;;;1.1;1.1;;;;;;;7.9;100.0;99980;;;;
2023/03/25 06:35:01;;;;;;;1.1;1.1;;;;;;;8.0;100.0;99980;;;;